Terminal Aerodrome Forecast
Issued by NWS Jacksonville, FL

Home | Current Version | Previous Version | Text Only | Print | Product List | Glossary On
Versions: 1 2 3 4 5 6 7 8 9 10 11 12 13 14
000
FTUS42 KJAX 301120
TAFGNV
TAF
KGNV 301120Z 3012/3112 31006KT P6SM FEW040 SCT250
     FM301900 18009KT P6SM VCTS SCT050CB SCT250
     FM310300 21004KT P6SM SCT050 BKN150 BKN250=

USA.gov is the U.S. government's official web portal to all federal, state and local government web resources and services.